createdAt,value
2023-01-18T00:02:17.265Z,35.75
2023-01-18T00:04:44.521Z,28.52
2023-01-18T00:07:13.237Z,30.25
2023-01-18T00:09:46.316Z,31.95
2023-01-18T00:12:13.804Z,33.05
2023-01-18T00:14:42.404Z,31.95
2023-01-18T00:17:19.624Z,31.63
2023-01-18T00:22:33.656Z,31.60
2023-01-18T00:25:00.810Z,31.75
2023-01-18T00:27:48.554Z,28.83
2023-01-18T00:30:26.235Z,28.50
2023-01-18T00:32:57.062Z,31.88
2023-01-18T00:35:24.784Z,29.45
2023-01-18T00:37:53.999Z,25.92
2023-01-18T00:40:24.087Z,27.98
2023-01-18T00:43:10.247Z,25.83
2023-01-18T00:45:37.755Z,25.75
2023-01-18T00:48:08.302Z,29.45
2023-01-18T00:50:37.179Z,26.10
2023-01-18T00:53:04.426Z,29.33
2023-01-18T00:58:20.173Z,31.17
2023-01-18T01:00:49.364Z,29.45
2023-01-18T01:06:34.613Z,28.77
2023-01-18T01:09:01.647Z,32.20
2023-01-18T01:11:28.960Z,27.35
2023-01-18T01:14:14.640Z,32.65
2023-01-18T01:17:02.614Z,32.85
2023-01-18T01:19:48.537Z,28.77
2023-01-18T01:22:34.708Z,34.60
2023-01-18T01:25:20.402Z,37.05
2023-01-18T01:30:25.112Z,33.95
2023-01-18T01:32:52.454Z,34.05
2023-01-18T01:35:19.411Z,31.63
2023-01-18T01:37:46.430Z,29.85
2023-01-18T01:40:15.738Z,37.05
2023-01-18T01:42:43.061Z,33.42
2023-01-18T01:45:10.402Z,34.72
2023-01-18T01:47:44.145Z,35.35
2023-01-18T01:50:39.455Z,29.50
2023-01-18T01:53:10.361Z,35.63
2023-01-18T01:55:42.384Z,34.75
2023-01-18T01:58:19.104Z,27.35
2023-01-18T02:00:46.193Z,34.05
2023-01-18T02:03:18.851Z,29.73
2023-01-18T02:05:55.968Z,32.47
2023-01-18T02:08:24.012Z,37.08
2023-01-18T02:10:51.978Z,32.88
2023-01-18T02:13:27.076Z,32.47
2023-01-18T02:16:18.311Z,40.05
2023-01-18T02:19:30.104Z,33.35
2023-01-18T02:25:13.039Z,29.20
2023-01-18T02:30:40.208Z,35.53
2023-01-18T02:33:09.630Z,31.45
2023-01-18T02:35:52.432Z,38.78
2023-01-18T02:38:27.889Z,29.95
2023-01-18T02:41:18.462Z,33.45
2023-01-18T02:49:12.800Z,39.47
2023-01-18T02:54:24.968Z,29.08
2023-01-18T02:56:54.118Z,29.17
2023-01-18T02:59:32.264Z,31.85
2023-01-18T03:02:03.605Z,33.15
2023-01-18T03:04:54.677Z,36.33
2023-01-18T03:07:30.532Z,32.22
2023-01-18T03:10:03.165Z,34.65
2023-01-18T03:12:48.378Z,33.55
2023-01-18T03:15:16.884Z,31.80
2023-01-18T03:17:58.064Z,36.80
2023-01-18T03:20:33.237Z,39.58
2023-01-18T03:23:35.743Z,29.90
2023-01-18T03:26:12.146Z,34.85
2023-01-18T03:29:00.426Z,31.55
2023-01-18T03:31:59.827Z,35.42
2023-01-18T03:34:59.530Z,35.97
2023-01-18T03:48:10.665Z,33.10
2023-01-18T03:50:54.894Z,40.28
2023-01-18T03:53:40.636Z,40.55
2023-01-18T03:56:23.565Z,41.85
2023-01-18T04:09:35.221Z,40.35
2023-01-18T04:12:01.957Z,40.83
2023-01-18T04:14:29.325Z,41.50
2023-01-18T04:16:56.826Z,52.70
2023-01-18T04:19:24.234Z,38.67
2023-01-18T04:21:51.195Z,44.55
2023-01-18T04:24:19.210Z,41.78
2023-01-18T04:27:07.525Z,50.60
2023-01-18T04:29:35.029Z,47.92
2023-01-18T04:32:02.877Z,40.10
2023-01-18T04:34:34.064Z,50.70
2023-01-18T04:37:01.595Z,42.20
2023-01-18T04:39:32.965Z,44.38
2023-01-18T04:41:59.860Z,41.38
2023-01-18T04:44:26.843Z,44.85
2023-01-18T04:46:54.793Z,43.45
2023-01-18T04:49:23.558Z,50.95
2023-01-18T04:51:50.406Z,43.95
2023-01-18T04:54:19.789Z,50.28
2023-01-18T04:56:46.596Z,47.20
2023-01-18T04:59:19.573Z,45.58
2023-01-18T05:01:46.608Z,50.38
2023-01-18T05:04:15.996Z,53.08
2023-01-18T05:06:43.284Z,42.00
2023-01-18T05:09:12.649Z,43.78
2023-01-18T05:11:40.018Z,38.78
2023-01-18T05:14:10.197Z,48.85
2023-01-18T05:16:41.005Z,43.97
2023-01-18T05:19:10.487Z,49.10
2023-01-18T05:21:38.760Z,48.97
2023-01-18T05:24:07.427Z,45.65
2023-01-18T05:26:34.318Z,45.13
2023-01-18T05:29:03.182Z,43.92
2023-01-18T05:31:30.648Z,50.72
2023-01-18T05:33:58.498Z,56.95
2023-01-18T05:36:27.951Z,49.47
2023-01-18T05:38:55.801Z,44.70
2023-01-18T05:41:22.892Z,48.92
2023-01-18T05:46:31.524Z,45.90
2023-01-18T05:49:01.600Z,49.20
2023-01-18T05:51:29.157Z,54.40
2023-01-18T05:53:56.153Z,44.08
2023-01-18T05:56:25.365Z,45.53
2023-01-18T06:01:29.107Z,40.47
2023-01-18T06:04:00.184Z,43.35
2023-01-18T06:06:27.187Z,47.17
2023-01-18T06:08:55.120Z,40.35
2023-01-18T06:11:22.521Z,45.15
2023-01-18T06:13:50.241Z,41.70
2023-01-18T06:16:17.094Z,39.15
2023-01-18T06:21:19.811Z,38.08
2023-01-18T06:23:46.717Z,41.13
2023-01-18T06:26:15.110Z,41.72
2023-01-18T06:28:42.166Z,31.08
2023-01-18T06:31:11.939Z,33.00
2023-01-18T06:33:39.651Z,37.70
2023-01-18T06:38:45.077Z,36.83
2023-01-18T06:41:12.872Z,33.67
2023-01-18T06:43:40.073Z,29.75
2023-01-18T06:46:13.098Z,30.58
2023-01-18T06:48:40.096Z,33.05
2023-01-18T06:51:17.963Z,30.73
2023-01-18T06:56:21.633Z,31.40
2023-01-18T06:58:51.376Z,38.13
2023-01-18T07:03:54.951Z,35.15
2023-01-18T07:06:21.903Z,32.83
2023-01-18T07:08:49.777Z,33.53
2023-01-18T07:11:17.477Z,29.85
2023-01-18T07:13:46.949Z,28.70
2023-01-18T07:16:17.619Z,32.22
2023-01-18T07:18:47.445Z,31.65
2023-01-18T07:21:16.719Z,31.35
2023-01-18T07:23:47.681Z,36.45
2023-01-18T07:26:20.860Z,36.67
2023-01-18T07:28:48.579Z,36.25
2023-01-18T07:31:19.434Z,29.70
2023-01-18T07:36:33.821Z,31.60
2023-01-18T07:44:36.183Z,38.13
2023-01-18T07:47:04.335Z,33.92
2023-01-18T07:49:31.960Z,36.28
2023-01-18T07:52:00.991Z,33.42
2023-01-18T07:54:32.007Z,28.60
2023-01-18T07:56:59.778Z,30.45
2023-01-18T08:02:17.521Z,28.40
2023-01-18T08:04:50.393Z,26.67
2023-01-18T08:10:06.135Z,23.70
2023-01-18T08:12:35.396Z,29.20
2023-01-18T08:15:02.762Z,21.40
2023-01-18T08:17:31.518Z,21.80
2023-01-18T08:20:03.152Z,27.85
2023-01-18T08:22:32.827Z,25.33
2023-01-18T08:25:00.174Z,24.88
2023-01-18T08:27:28.755Z,28.48
2023-01-18T08:29:56.915Z,23.92
2023-01-18T08:37:31.634Z,27.00
2023-01-18T08:42:40.887Z,32.85
2023-01-18T08:50:31.184Z,29.40
2023-01-18T08:53:00.701Z,24.83
2023-01-18T08:55:31.760Z,25.15
2023-01-18T09:03:20.943Z,31.58
2023-01-18T09:11:11.032Z,32.05
2023-01-18T09:14:00.217Z,27.20
2023-01-18T09:16:36.203Z,33.42
2023-01-18T09:27:03.217Z,30.83
2023-01-18T09:32:08.845Z,28.88
2023-01-18T09:34:37.859Z,27.15
2023-01-18T09:37:05.148Z,29.67
2023-01-18T09:39:43.051Z,31.73
2023-01-18T09:42:23.962Z,32.08
2023-01-18T09:44:55.747Z,30.33
2023-01-18T09:58:14.086Z,37.90
2023-01-18T10:09:46.309Z,38.67
2023-01-18T10:23:02.828Z,36.50
2023-01-18T10:31:21.519Z,37.28
2023-01-18T10:36:42.310Z,37.20
2023-01-18T10:44:23.203Z,40.13
2023-01-18T10:49:46.899Z,40.92
2023-01-18T10:52:33.457Z,36.85
2023-01-18T10:55:09.432Z,47.45
2023-01-18T10:57:43.476Z,44.75
2023-01-18T11:00:34.741Z,46.28
2023-01-18T11:03:10.066Z,42.67
2023-01-18T11:05:44.818Z,38.58
2023-01-18T11:08:32.121Z,39.08
2023-01-18T11:11:02.329Z,40.05
2023-01-18T11:13:45.879Z,35.63
2023-01-18T11:16:24.738Z,43.33
2023-01-18T11:19:18.380Z,32.35
2023-01-18T11:21:51.695Z,31.60
2023-01-18T11:24:20.836Z,39.50
2023-01-18T11:26:58.801Z,32.15
2023-01-18T11:29:35.737Z,30.27
2023-01-18T11:32:06.697Z,28.42
2023-01-18T11:34:41.785Z,35.03
2023-01-18T11:37:34.607Z,28.13
2023-01-18T11:40:22.402Z,28.27
2023-01-18T11:42:54.300Z,28.85
2023-01-18T11:45:30.818Z,32.92
2023-01-18T11:50:57.485Z,31.98
2023-01-18T11:53:58.581Z,30.10
2023-01-18T11:56:56.009Z,32.25
2023-01-18T11:59:34.122Z,28.45
2023-01-18T12:02:57.580Z,30.60
2023-01-18T12:05:55.322Z,30.55
2023-01-18T12:08:46.389Z,25.05
2023-01-18T12:11:28.202Z,23.13
2023-01-18T12:14:21.656Z,24.55
2023-01-18T12:17:11.026Z,30.63
2023-01-18T12:19:52.339Z,32.35
2023-01-18T12:22:35.477Z,26.02
2023-01-18T12:25:57.675Z,23.95
2023-01-18T12:28:40.293Z,26.63
2023-01-18T12:31:28.535Z,28.70
2023-01-18T12:34:07.329Z,24.50
2023-01-18T12:36:44.763Z,25.38
2023-01-18T12:39:23.147Z,29.55
2023-01-18T12:41:53.139Z,28.08
2023-01-18T12:44:30.234Z,32.58
2023-01-18T12:47:06.273Z,24.60
2023-01-18T12:49:40.465Z,32.92
2023-01-18T12:52:19.032Z,39.47
2023-01-18T12:55:12.784Z,39.38
2023-01-18T12:57:43.289Z,36.05
2023-01-18T13:00:51.092Z,38.47
2023-01-18T13:03:25.154Z,37.50
2023-01-18T13:06:04.220Z,30.90
2023-01-18T13:08:50.026Z,25.02
2023-01-18T13:11:31.440Z,31.23
2023-01-18T13:14:24.430Z,33.15
2023-01-18T13:17:03.834Z,26.85
2023-01-18T13:20:00.887Z,29.20
2023-01-18T13:23:05.441Z,28.95
2023-01-18T13:25:32.983Z,27.92
2023-01-18T13:28:14.662Z,42.70
2023-01-18T13:30:57.246Z,28.38
2023-01-18T13:33:34.621Z,34.00
2023-01-18T13:36:32.098Z,30.20
2023-01-18T13:39:16.276Z,30.25
2023-01-18T13:42:09.961Z,31.23
2023-01-18T13:44:41.565Z,29.90
2023-01-18T13:47:43.773Z,31.60
2023-01-18T13:50:29.240Z,38.60
2023-01-18T13:53:22.333Z,34.42
2023-01-18T13:56:12.025Z,36.08
2023-01-18T13:58:54.064Z,36.72
2023-01-18T14:01:46.180Z,38.78
2023-01-18T14:04:57.280Z,35.90
2023-01-18T14:07:38.016Z,35.83
2023-01-18T14:10:37.391Z,35.58
2023-01-18T14:13:14.074Z,37.35
2023-01-18T14:15:58.070Z,32.55
2023-01-18T14:18:29.894Z,37.97
2023-01-18T14:21:22.247Z,41.88
2023-01-18T14:27:24.256Z,40.15
2023-01-18T14:30:24.364Z,38.10
2023-01-18T14:36:02.183Z,43.25
2023-01-18T14:38:32.779Z,41.85
2023-01-18T14:41:34.716Z,47.47
2023-01-18T14:44:18.838Z,43.88
2023-01-18T14:50:03.413Z,36.97
2023-01-18T14:52:39.356Z,36.13
2023-01-18T14:55:37.462Z,48.45
2023-01-18T14:58:40.431Z,45.90
2023-01-18T15:01:33.343Z,42.42
2023-01-18T15:04:41.515Z,48.28
2023-01-18T15:07:14.101Z,43.13
2023-01-18T15:09:42.882Z,40.95
2023-01-18T15:12:17.609Z,46.45
2023-01-18T15:14:51.284Z,68.93
2023-01-18T15:17:25.646Z,64.38
2023-01-18T15:20:04.371Z,68.57
2023-01-18T15:22:37.749Z,60.15
2023-01-18T15:25:18.918Z,54.05
2023-01-18T15:28:23.306Z,48.10
2023-01-18T15:30:54.969Z,47.00
2023-01-18T15:33:26.229Z,48.97
2023-01-18T15:36:16.559Z,37.13
2023-01-18T15:38:43.875Z,55.70
2023-01-18T15:41:14.903Z,51.25
2023-01-18T15:43:44.075Z,47.47
2023-01-18T15:46:18.011Z,43.10
2023-01-18T15:48:54.880Z,45.00
2023-01-18T15:51:23.069Z,44.22
2023-01-18T15:53:56.482Z,50.10
2023-01-18T15:56:28.146Z,47.78
2023-01-18T15:58:57.114Z,44.17
2023-01-18T16:01:29.566Z,44.70
2023-01-18T16:04:22.522Z,44.65
2023-01-18T16:06:53.376Z,44.40
2023-01-18T16:09:22.554Z,36.80
2023-01-18T16:11:57.741Z,50.40
2023-01-18T16:14:40.313Z,41.90
2023-01-18T16:17:20.478Z,45.47
2023-01-18T16:20:00.005Z,46.17
2023-01-18T16:22:35.431Z,43.03
2023-01-18T16:25:19.856Z,41.80
2023-01-18T16:28:00.624Z,43.80
2023-01-18T16:30:38.968Z,39.72
2023-01-18T16:33:19.379Z,40.40
2023-01-18T16:35:49.441Z,45.97
2023-01-18T16:38:22.896Z,39.33
2023-01-18T16:40:51.206Z,41.92
2023-01-18T16:43:20.747Z,44.53
2023-01-18T16:45:51.794Z,43.20
2023-01-18T16:48:21.796Z,51.88
2023-01-18T16:50:50.423Z,41.20
2023-01-18T16:53:18.623Z,49.38
2023-01-18T16:55:48.690Z,50.55
2023-01-18T16:58:18.547Z,60.40
2023-01-18T17:01:00.305Z,54.25
2023-01-18T17:03:28.428Z,47.88
2023-01-18T17:05:55.756Z,54.83
2023-01-18T17:08:23.553Z,57.35
2023-01-18T17:10:52.465Z,57.30
2023-01-18T17:13:19.984Z,58.47
2023-01-18T17:15:48.107Z,66.57
2023-01-18T17:21:06.930Z,70.88
2023-01-18T17:23:33.791Z,68.43
2023-01-18T17:26:00.834Z,63.00
2023-01-18T17:28:29.105Z,67.80
2023-01-18T17:30:56.079Z,66.18
2023-01-18T17:33:28.728Z,75.57
2023-01-18T17:35:56.556Z,66.03
2023-01-18T17:38:28.786Z,74.05
2023-01-18T17:40:59.075Z,65.05
2023-01-18T17:43:34.647Z,71.00
2023-01-18T17:46:07.408Z,71.78
2023-01-18T17:48:39.690Z,66.47
2023-01-18T17:51:09.596Z,58.88
2023-01-18T17:53:38.076Z,58.97
2023-01-18T17:56:13.266Z,58.50
2023-01-18T17:58:40.888Z,49.42
2023-01-18T18:01:13.477Z,65.85
2023-01-18T18:03:45.511Z,55.35
2023-01-18T18:06:19.003Z,60.55
2023-01-18T18:08:55.121Z,51.47
2023-01-18T18:11:28.485Z,51.75
2023-01-18T18:13:59.919Z,49.20
2023-01-18T18:16:31.603Z,55.08
2023-01-18T18:19:00.645Z,52.15
2023-01-18T18:21:27.621Z,56.40
2023-01-18T18:23:55.146Z,54.20
2023-01-18T18:26:24.907Z,67.82
2023-01-18T18:28:52.340Z,55.88
2023-01-18T18:31:23.977Z,59.65
2023-01-18T18:33:54.316Z,56.88
2023-01-18T18:36:27.207Z,63.63
2023-01-18T18:39:22.812Z,63.25
2023-01-18T18:41:51.199Z,54.50
2023-01-18T18:44:20.866Z,62.80
2023-01-18T18:46:48.304Z,62.40
2023-01-18T18:49:15.721Z,70.22
2023-01-18T18:51:43.647Z,72.47
2023-01-18T18:54:11.554Z,60.22
2023-01-18T18:56:41.788Z,68.72
2023-01-18T18:59:09.139Z,57.75
2023-01-18T19:01:36.251Z,66.28
2023-01-18T19:04:04.663Z,72.10
2023-01-18T19:06:32.189Z,70.38
2023-01-18T19:08:59.930Z,69.85
2023-01-18T19:11:27.337Z,73.10
2023-01-18T19:13:55.966Z,70.63
2023-01-18T19:16:24.120Z,78.68
2023-01-18T19:18:52.120Z,238.02
2023-01-18T19:21:20.422Z,87.00
2023-01-18T19:23:47.961Z,104.03
2023-01-18T19:26:18.528Z,84.18
2023-01-18T19:28:47.261Z,79.97
2023-01-18T19:31:15.298Z,75.13
2023-01-18T19:33:43.223Z,102.35
2023-01-18T19:36:14.713Z,71.47
2023-01-18T19:38:48.151Z,76.97
2023-01-18T19:41:20.592Z,70.82
2023-01-18T19:44:07.599Z,69.63
2023-01-18T19:46:39.336Z,63.47
2023-01-18T19:49:07.814Z,62.08
2023-01-18T19:51:38.986Z,69.30
2023-01-18T19:54:06.843Z,67.20
2023-01-18T19:56:34.228Z,66.25
2023-01-18T19:59:04.626Z,55.92
2023-01-18T20:01:37.153Z,65.88
2023-01-18T20:04:09.893Z,68.40
2023-01-18T20:06:38.893Z,73.38
2023-01-18T20:09:19.139Z,75.82
2023-01-18T20:11:48.145Z,71.85
2023-01-18T20:14:24.343Z,77.57
2023-01-18T20:16:56.717Z,77.53
2023-01-18T20:19:23.565Z,66.70
2023-01-18T20:21:51.388Z,80.40
2023-01-18T20:24:18.346Z,72.00
2023-01-18T20:26:46.108Z,72.80
2023-01-18T20:29:15.795Z,61.13
2023-01-18T20:31:49.710Z,68.18
2023-01-18T20:34:17.028Z,69.00
2023-01-18T20:36:47.623Z,68.40
2023-01-18T20:39:15.303Z,72.22
2023-01-18T20:41:42.299Z,61.53
2023-01-18T20:44:10.061Z,74.30
2023-01-18T20:46:40.189Z,70.65
2023-01-18T20:49:07.529Z,67.68
2023-01-18T20:51:34.549Z,65.82
2023-01-18T20:54:01.869Z,63.83
2023-01-18T20:56:31.421Z,62.88
2023-01-18T20:58:59.008Z,61.35
2023-01-18T21:01:32.429Z,68.43
2023-01-18T21:04:01.191Z,67.90
2023-01-18T21:06:29.252Z,72.32
2023-01-18T21:08:57.750Z,72.78
2023-01-18T21:11:31.276Z,78.82
2023-01-18T21:13:59.367Z,70.90
2023-01-18T21:16:27.983Z,79.80
2023-01-18T21:18:59.720Z,85.88
2023-01-18T21:21:28.068Z,80.90
2023-01-18T21:23:57.891Z,70.32
2023-01-18T21:26:25.333Z,66.97
2023-01-18T21:28:53.243Z,71.82
2023-01-18T21:31:21.211Z,64.28
2023-01-18T21:33:51.315Z,59.90
2023-01-18T21:36:19.136Z,56.88
2023-01-18T21:38:49.375Z,65.57
2023-01-18T21:41:36.100Z,63.60
2023-01-18T21:44:22.680Z,66.03
2023-01-18T21:46:53.296Z,69.93
2023-01-18T21:50:11.296Z,55.08
2023-01-18T21:52:48.685Z,69.35
2023-01-18T21:55:16.937Z,59.97
2023-01-18T21:57:44.721Z,60.63
2023-01-18T22:00:12.378Z,58.00
2023-01-18T22:02:40.284Z,64.60
2023-01-18T22:05:09.918Z,61.55
2023-01-18T22:07:37.727Z,64.72
2023-01-18T22:10:07.227Z,62.05
2023-01-18T22:12:36.417Z,61.28
2023-01-18T22:15:05.493Z,61.03
2023-01-18T22:17:33.035Z,60.53
2023-01-18T22:20:02.252Z,54.33
2023-01-18T22:22:29.277Z,66.88
2023-01-18T22:25:00.524Z,63.65
2023-01-18T22:27:29.665Z,58.03
2023-01-18T22:29:56.443Z,64.70
2023-01-18T22:32:23.400Z,68.85
2023-01-18T22:34:50.867Z,76.63
2023-01-18T22:37:17.663Z,80.63
2023-01-18T22:39:46.401Z,64.47
2023-01-18T22:42:13.621Z,61.85
2023-01-18T22:44:40.352Z,70.28
2023-01-18T22:47:07.876Z,77.53
2023-01-18T22:49:35.187Z,64.75
2023-01-18T22:52:02.089Z,72.03
2023-01-18T22:54:30.780Z,58.97
2023-01-18T22:56:57.679Z,72.47
2023-01-18T22:59:26.604Z,63.05
2023-01-18T23:01:54.513Z,72.18
2023-01-18T23:04:24.798Z,66.80
2023-01-18T23:06:55.052Z,74.10
2023-01-18T23:09:21.895Z,73.03
2023-01-18T23:11:49.126Z,62.67
2023-01-18T23:17:35.890Z,62.55
2023-01-18T23:20:03.036Z,72.60
2023-01-18T23:22:33.060Z,63.92
2023-01-18T23:25:04.654Z,74.22
2023-01-18T23:27:34.296Z,64.90
2023-01-18T23:30:01.511Z,64.05
2023-01-18T23:32:30.624Z,74.30
2023-01-18T23:34:58.403Z,62.22
2023-01-18T23:37:26.153Z,67.18
2023-01-18T23:40:12.048Z,67.57
2023-01-18T23:42:57.648Z,73.13
2023-01-18T23:45:44.653Z,65.80
2023-01-18T23:48:36.967Z,72.32
2023-01-18T23:51:23.318Z,59.38
2023-01-18T23:54:08.902Z,67.85
2023-01-18T23:56:35.978Z,69.45
2023-01-18T23:59:03.938Z,59.40
